Farnborough, United Kingdom

11:14 AM BST on September 23, 2014 (GMT +0100)
Farnborough | Change Station
CLOSE
Current Station
Airport
Location: Farnborough,
Elevation: 213 ft
Nearby Weather Stations

Elev 213 ft 51.28 °N, 0.77 °W | Updated 24 minutes ago

Mostly Cloudy
Mostly Cloudy
57 °F
Feels Like 57 °F
N
5
Wind Variable Wind from WNW

Today
High -- | Low -- °F
--% Chance of Precip.
Yesterday
High -- | Low -- °F
Precip. -- in
6:50 AM 6:59 PM
Waning Crescent, 1% visible
Pressure 30.18 in
Visibility 5.0 miles
Clouds Mostly Cloudy 4700 ft
Dew Point 50 °F
Humidity 77%
Rainfall 0.00 in
Snow Depth Not available.
UV 2 out of 12
Pollen Not available.
Air Quality Not available.
Flu Activity Not available.
METAR EGLF 230950Z 29004KT 240V360 8000 BKN047 14/10 Q1022

More Conditions Fewer Conditions

Pressure 30.18 in
Visibility 5.0 miles
Clouds Mostly Cloudy 4700 ft
Dew Point 50 °F
Humidity 77%
Rainfall 0.00 in
Snow Depth Not available.
UV 2 out of 12
Pollen Not available.
Air Quality Not available.
Flu Activity Not available.
METAR EGLF 230950Z 29004KT 240V360 8000 BKN047 14/10 Q1022

More Conditions Fewer Conditions

10-Day Weather Forecast

Almanac

Astronomy

Sep. 23, 2014 Rise Set
Actual Time 6:50 AM BST 6:59 PM BST
Civil Twilight 6:17 AM BST 7:32 PM BST
Nautical Twilight 5:38 AM BST 8:11 PM BST
Astronomical Twilight 4:57 AM BST 8:52 PM BST
Moon 5:58 AM BST 6:30 PM BST
Length of Visible Light 13h 15m
Length of Day
12h 08m
Tomorrow will be 3m 53s shorter.
Waning Crescent, 1% of the Moon is Illuminated
Today
Waning Crescent
Sep 24
New
Oct 1
First Quarter
Oct 8
Full
Oct 15
Last Quarter

Yesterday's Extremes

Country Highs Country Lows

Community

WunderPhotos

Upload Photos

1,755,645 photos uploaded!

Nearby

Snow Depth

Not available.

Earthquake Activity

City Distance Mag. Time & Date
No recent earthquake activity has been reported nearby.
Minimum magnitude displayed is 2.5.

Coastal Water Temperatures

Place Temperature
No Stations Reporting

Nearby Weather Stations